Terminal Aerodrome Forecast
Issued by NWS

Home | Current Version | Previous Version | Text Only | Print | Product List | Glossary On
Versions: 1 2 3 4 5 6 7 8 9 10 11 12 13 14 15 16 17 18 19
000
FTUS42 KFFC 282335
TAFRYY
TAF
KRYY 282335Z 0100/0124 10011KT P6SM SCT100
     FM010100 08012KT P6SM BKN040
     FM010600 08013KT 6SM -RA BKN008
     FM011000 08010KT 2SM -RADZ OVC004
     FM011500 08008KT 4SM -RADZ OVC006
     FM011900 08005KT P6SM BKN015=

USA.gov is the U.S. government's official web portal to all federal, state and local government web resources and services.